Time;durP1;ratioP1;P1;durP2;ratioP2;P2;SDS_P1;SDS_P2;PMS_P1;PMS_P2;Temp;Humidity;BMP_temperature;BMP_pressure;BME280_temperature;BME280_humidity;BME280_pressure;Samples;Min_cycle;Max_cycle;Signal;HPM_P1;HPM_P2
2022/03/18 00:00:42;;;;;;;19.13;13.57;;;;;;;;;;2075036;28;20268;-58
2022/03/18 00:01:43;;;;;;;20.00;12.50;;;;;;;;;;2075195;28;20188;-60
2022/03/18 00:02:43;;;;;;;18.80;13.47;;;;;;;;;;2073535;28;20177;-57
2022/03/18 00:03:44;;;;;;;21.67;14.30;;;;;;;;;;2071578;28;20796;-58
2022/03/18 00:04:44;;;;;;;16.60;12.53;;;;;;;;;;2062617;28;20182;-57
2022/03/18 00:05:44;;;;;;;15.13;12.47;;;;;;;;;;2056803;28;20218;-57
2022/03/18 00:06:44;;;;;;;14.00;12.60;;;;;;;;;;2064668;28;20199;-58
2022/03/18 00:07:45;;;;;;;17.20;12.97;;;;;;;;;;2072844;28;20248;-56
2022/03/18 00:08:46;;;;;;;16.67;13.63;;;;;;;;;;2071616;28;20185;-58
2022/03/18 00:09:47;;;;;;;15.97;13.10;;;;;;;;;;2074197;28;20177;-57
2022/03/18 00:10:47;;;;;;;19.33;13.47;;;;;;;;;;2056505;28;20189;-57
2022/03/18 00:11:48;;;;;;;16.27;13.03;;;;;;;;;;2058893;28;20183;-57
2022/03/18 00:12:50;;;;;;;20.23;12.83;;;;;;;;;;2073959;28;20220;-58
2022/03/18 00:13:51;;;;;;;17.97;13.40;;;;;;;;;;2065153;28;20243;-57
2022/03/18 00:14:51;;;;;;;18.00;12.53;;;;;;;;;;2065129;28;20244;-57
2022/03/18 00:15:54;;;;;;;19.87;12.50;;;;;;;;;;2072274;28;20185;-58
2022/03/18 00:16:54;;;;;;;19.53;13.50;;;;;;;;;;2064759;28;20708;-54
2022/03/18 00:17:55;;;;;;;20.00;14.50;;;;;;;;;;2065745;28;20170;-56
2022/03/18 00:18:56;;;;;;;19.73;13.17;;;;;;;;;;2074759;28;20321;-57
2022/03/18 00:19:57;;;;;;;18.83;14.03;;;;;;;;;;2064985;28;20205;-60
2022/03/18 00:20:57;;;;;;;23.43;15.57;;;;;;;;;;2057412;28;20185;-55
2022/03/18 00:22:01;;;;;;;21.17;14.77;;;;;;;;;;2065973;28;20205;-57
2022/03/18 00:23:01;;;;;;;21.53;14.53;;;;;;;;;;2074400;28;20177;-58
2022/03/18 00:24:03;;;;;;;17.73;15.43;;;;;;;;;;2074321;28;20216;-58
2022/03/18 00:25:04;;;;;;;21.50;15.10;;;;;;;;;;2074254;28;20200;-55
2022/03/18 00:26:05;;;;;;;21.27;15.30;;;;;;;;;;2073557;28;20203;-58
2022/03/18 00:27:05;;;;;;;21.53;14.73;;;;;;;;;;2074170;28;20203;-58
2022/03/18 00:28:05;;;;;;;19.63;15.33;;;;;;;;;;2073897;28;20645;-57
2022/03/18 00:29:05;;;;;;;21.27;15.47;;;;;;;;;;2074758;28;20727;-57
2022/03/18 00:30:09;;;;;;;18.13;15.30;;;;;;;;;;2065570;28;20197;-55
2022/03/18 00:31:09;;;;;;;23.43;16.20;;;;;;;;;;2066131;28;20260;-55
2022/03/18 00:32:10;;;;;;;21.33;16.30;;;;;;;;;;2074534;28;20177;-54
2022/03/18 00:33:10;;;;;;;19.87;16.63;;;;;;;;;;2074311;28;20211;-57
2022/03/18 00:34:10;;;;;;;20.33;16.53;;;;;;;;;;2073702;28;20207;-56
2022/03/18 00:35:11;;;;;;;21.50;16.23;;;;;;;;;;2074703;28;20201;-57
2022/03/18 00:36:11;;;;;;;22.23;16.50;;;;;;;;;;2065054;28;20229;-56
2022/03/18 00:37:12;;;;;;;22.13;16.20;;;;;;;;;;2069027;28;20426;-54
2022/03/18 00:38:13;;;;;;;24.17;16.13;;;;;;;;;;2070435;28;20225;-54
2022/03/18 00:39:14;;;;;;;20.43;14.80;;;;;;;;;;2071133;28;20200;-58
2022/03/18 00:40:14;;;;;;;25.07;16.20;;;;;;;;;;2073594;28;20177;-55
2022/03/18 00:41:14;;;;;;;34.27;16.43;;;;;;;;;;2074454;28;20196;-54
2022/03/18 00:42:14;;;;;;;20.47;14.60;;;;;;;;;;2074136;28;20180;-55
2022/03/18 00:43:16;;;;;;;23.40;14.77;;;;;;;;;;2074719;28;20181;-55
2022/03/18 00:44:16;;;;;;;20.07;14.93;;;;;;;;;;2068616;28;20201;-58
2022/03/18 00:45:17;;;;;;;18.27;15.50;;;;;;;;;;2071925;28;20215;-54
2022/03/18 00:46:20;;;;;;;20.97;15.63;;;;;;;;;;2074774;28;20315;-58
2022/03/18 00:52:37;;;;;;;17.10;12.00;;;;;;;;;;2070703;28;20478;-54
2022/03/18 00:53:37;;;;;;;18.90;12.73;;;;;;;;;;2074368;28;20212;-56
2022/03/18 00:54:39;;;;;;;14.53;11.83;;;;;;;;;;2074265;28;20226;-57
2022/03/18 00:55:39;;;;;;;16.87;12.57;;;;;;;;;;2074403;28;20177;-57
2022/03/18 00:56:40;;;;;;;22.70;12.73;;;;;;;;;;2074044;28;20168;-57
2022/03/18 00:57:40;;;;;;;15.63;12.50;;;;;;;;;;2072930;28;20223;-58
2022/03/18 00:58:42;;;;;;;23.03;13.20;;;;;;;;;;2074865;28;20203;-57
2022/03/18 00:59:42;;;;;;;21.63;14.03;;;;;;;;;;2065988;28;20273;-55
2022/03/18 01:00:43;;;;;;;22.63;14.90;;;;;;;;;;2066711;28;20257;-58
2022/03/18 01:01:43;;;;;;;21.27;14.63;;;;;;;;;;2073675;28;20207;-58
2022/03/18 01:02:44;;;;;;;24.20;14.13;;;;;;;;;;2073743;28;20169;-57
2022/03/18 01:03:44;;;;;;;23.93;15.70;;;;;;;;;;2073669;28;20192;-58
2022/03/18 01:04:44;;;;;;;23.33;15.47;;;;;;;;;;2072979;28;20195;-57
2022/03/18 01:05:44;;;;;;;25.57;16.37;;;;;;;;;;2074557;28;20587;-58
2022/03/18 01:06:45;;;;;;;21.00;14.97;;;;;;;;;;2074599;28;20180;-57
2022/03/18 01:07:45;;;;;;;18.90;15.27;;;;;;;;;;2069106;28;20558;-59
2022/03/18 01:08:45;;;;;;;21.67;15.60;;;;;;;;;;2072325;28;20527;-58
2022/03/18 01:09:46;;;;;;;25.47;14.43;;;;;;;;;;2074326;28;20192;-55
2022/03/18 01:10:46;;;;;;;24.50;16.57;;;;;;;;;;2073756;28;20180;-56
2022/03/18 01:11:47;;;;;;;19.23;14.70;;;;;;;;;;2073811;28;20630;-57
2022/03/18 01:12:47;;;;;;;21.17;14.73;;;;;;;;;;2073533;28;20169;-58
2022/03/18 01:13:48;;;;;;;17.23;14.53;;;;;;;;;;2074029;28;20180;-56
2022/03/18 01:14:48;;;;;;;20.60;15.33;;;;;;;;;;2064360;28;20178;-58
2022/03/18 01:15:49;;;;;;;18.33;14.00;;;;;;;;;;2064711;28;20181;-57
2022/03/18 01:16:49;;;;;;;16.63;14.00;;;;;;;;;;2072125;28;20186;-57
2022/03/18 01:17:49;;;;;;;22.07;14.37;;;;;;;;;;2073901;28;20177;-57
2022/03/18 01:18:50;;;;;;;20.67;14.33;;;;;;;;;;2073252;28;20215;-58
2022/03/18 01:19:50;;;;;;;19.50;13.97;;;;;;;;;;2074290;28;20515;-57
2022/03/18 01:20:51;;;;;;;19.47;13.93;;;;;;;;;;2074254;28;20193;-58
2022/03/18 01:21:51;;;;;;;19.50;14.93;;;;;;;;;;2074346;28;20257;-57
2022/03/18 01:22:51;;;;;;;19.37;15.17;;;;;;;;;;2073349;28;20181;-56
2022/03/18 01:23:51;;;;;;;23.80;14.40;;;;;;;;;;2073818;28;20256;-56
2022/03/18 01:24:52;;;;;;;19.80;14.27;;;;;;;;;;2072906;28;20213;-57
2022/03/18 01:25:54;;;;;;;22.63;15.00;;;;;;;;;;2075546;28;20173;-54
2022/03/18 01:26:54;;;;;;;22.53;15.27;;;;;;;;;;2078116;28;20807;-52
2022/03/18 01:27:54;;;;;;;18.00;15.43;;;;;;;;;;2071496;28;20248;-55
2022/03/18 01:28:56;;;;;;;21.63;15.27;;;;;;;;;;2071364;28;20197;-55
2022/03/18 01:29:57;;;;;;;17.40;13.33;;;;;;;;;;2079501;28;20597;-54
2022/03/18 01:30:57;;;;;;;19.43;14.87;;;;;;;;;;2077426;28;20169;-55
2022/03/18 01:31:58;;;;;;;21.20;14.80;;;;;;;;;;2076428;28;20165;-53
2022/03/18 01:33:01;;;;;;;19.73;13.83;;;;;;;;;;2075993;28;20169;-56
2022/03/18 01:34:02;;;;;;;18.33;14.80;;;;;;;;;;2074389;28;20170;-57
2022/03/18 01:35:02;;;;;;;18.77;14.90;;;;;;;;;;2073049;28;20180;-57
2022/03/18 01:36:06;;;;;;;19.00;15.20;;;;;;;;;;2064717;28;20181;-58
2022/03/18 01:37:06;;;;;;;19.07;16.00;;;;;;;;;;2065796;28;20788;-57
2022/03/18 01:38:06;;;;;;;20.27;15.70;;;;;;;;;;2073253;28;20188;-56
2022/03/18 01:39:06;;;;;;;22.93;14.70;;;;;;;;;;2065435;28;20197;-57
2022/03/18 01:40:07;;;;;;;23.13;15.43;;;;;;;;;;2068465;28;20650;-55
2022/03/18 01:41:07;;;;;;;22.20;14.43;;;;;;;;;;2073077;28;20184;-53
2022/03/18 01:42:08;;;;;;;26.10;15.30;;;;;;;;;;2073923;28;20181;-58
2022/03/18 01:43:09;;;;;;;17.57;14.87;;;;;;;;;;2073795;28;20653;-55
2022/03/18 01:44:10;;;;;;;22.30;15.77;;;;;;;;;;2073519;28;20173;-56
2022/03/18 01:45:10;;;;;;;22.10;15.40;;;;;;;;;;2056125;28;20962;-57
2022/03/18 01:46:11;;;;;;;23.87;13.80;;;;;;;;;;2057175;28;20190;-56
2022/03/18 01:47:11;;;;;;;18.27;13.07;;;;;;;;;;2073347;28;20606;-57
2022/03/18 01:48:13;;;;;;;18.10;13.97;;;;;;;;;;2064219;28;20227;-58
2022/03/18 01:49:13;;;;;;;24.13;13.30;;;;;;;;;;2069195;28;20236;-56
2022/03/18 01:50:14;;;;;;;14.87;12.43;;;;;;;;;;2071579;28;20207;-58
2022/03/18 01:51:18;;;;;;;13.67;12.23;;;;;;;;;;2070172;28;20183;-59
2022/03/18 01:52:18;;;;;;;15.07;13.13;;;;;;;;;;2073005;28;20215;-57
2022/03/18 01:53:18;;;;;;;18.40;13.43;;;;;;;;;;2070181;28;20688;-58
2022/03/18 01:55:38;;;;;;;15.47;12.23;;;;;;;;;;2057106;28;20170;-58
2022/03/18 01:56:38;;;;;;;16.63;13.17;;;;;;;;;;2061021;28;20815;-57
2022/03/18 01:57:39;;;;;;;17.13;12.77;;;;;;;;;;2070968;28;20169;-57
2022/03/18 01:58:40;;;;;;;17.27;13.13;;;;;;;;;;2072312;28;20903;-56
2022/03/18 01:59:42;;;;;;;17.63;14.43;;;;;;;;;;2073001;28;20723;-57
2022/03/18 02:00:43;;;;;;;23.30;14.07;;;;;;;;;;2055672;28;20434;-57
2022/03/18 02:01:44;;;;;;;20.70;14.30;;;;;;;;;;2049794;28;20179;-57
2022/03/18 02:02:44;;;;;;;20.87;14.70;;;;;;;;;;2070618;28;20255;-59
2022/03/18 02:03:45;;;;;;;19.47;13.77;;;;;;;;;;2072876;28;20260;-57
2022/03/18 02:04:45;;;;;;;18.20;13.90;;;;;;;;;;2072610;28;20175;-58
2022/03/18 02:05:45;;;;;;;17.00;13.33;;;;;;;;;;2072338;28;20178;-56
2022/03/18 02:06:46;;;;;;;19.27;14.40;;;;;;;;;;2073158;28;20177;-57
2022/03/18 02:07:46;;;;;;;20.10;13.70;;;;;;;;;;2072290;28;20185;-58
2022/03/18 02:08:47;;;;;;;17.03;13.67;;;;;;;;;;2065801;28;20244;-57
2022/03/18 02:09:48;;;;;;;15.47;13.83;;;;;;;;;;2070897;28;20184;-56
2022/03/18 02:10:49;;;;;;;19.73;14.43;;;;;;;;;;2071419;28;20718;-53
2022/03/18 02:11:49;;;;;;;21.80;14.27;;;;;;;;;;2073712;28;20172;-60
2022/03/18 02:12:49;;;;;;;21.30;14.43;;;;;;;;;;2073076;28;20437;-57
2022/03/18 02:13:51;;;;;;;16.37;13.70;;;;;;;;;;2070711;28;20181;-54
2022/03/18 02:14:51;;;;;;;16.97;13.77;;;;;;;;;;2060233;28;20189;-55
2022/03/18 02:15:52;;;;;;;23.73;14.50;;;;;;;;;;2069790;28;20333;-57
2022/03/18 02:16:52;;;;;;;22.60;13.80;;;;;;;;;;2078679;28;20207;-56
2022/03/18 02:17:52;;;;;;;21.33;14.03;;;;;;;;;;2075037;28;20173;-56
2022/03/18 02:18:52;;;;;;;19.10;13.37;;;;;;;;;;2073710;28;20224;-58
2022/03/18 02:19:53;;;;;;;20.57;14.57;;;;;;;;;;2075385;28;20187;-58
2022/03/18 02:20:53;;;;;;;20.40;13.67;;;;;;;;;;2074697;28;20185;-57
2022/03/18 02:21:54;;;;;;;23.93;14.13;;;;;;;;;;2075065;28;20173;-55
2022/03/18 02:22:54;;;;;;;16.87;13.97;;;;;;;;;;2073597;28;20181;-56
2022/03/18 02:23:55;;;;;;;19.87;13.23;;;;;;;;;;2073633;28;20185;-56
2022/03/18 02:24:56;;;;;;;17.43;13.43;;;;;;;;;;2068716;28;20215;-54
2022/03/18 02:25:56;;;;;;;18.97;14.23;;;;;;;;;;2073855;28;20181;-54
2022/03/18 02:26:57;;;;;;;18.67;13.00;;;;;;;;;;2071849;28;20578;-58
2022/03/18 02:28:01;;;;;;;20.03;13.77;;;;;;;;;;2072484;28;20438;-57
2022/03/18 02:29:02;;;;;;;18.07;11.97;;;;;;;;;;2072114;28;20201;-57
2022/03/18 02:30:04;;;;;;;14.13;12.70;;;;;;;;;;2070386;28;20188;-57
2022/03/18 02:31:04;;;;;;;17.10;12.53;;;;;;;;;;2064083;28;20658;-55
2022/03/18 02:32:05;;;;;;;17.53;12.70;;;;;;;;;;2071266;28;20169;-56
2022/03/18 02:33:05;;;;;;;15.73;13.40;;;;;;;;;;2068801;28;20675;-55
2022/03/18 02:34:05;;;;;;;13.77;12.27;;;;;;;;;;2072258;28;20660;-56
2022/03/18 02:35:06;;;;;;;17.90;11.87;;;;;;;;;;2072549;28;20195;-57
2022/03/18 02:36:06;;;;;;;20.17;13.47;;;;;;;;;;2072518;28;20183;-56
2022/03/18 02:37:07;;;;;;;18.87;13.70;;;;;;;;;;2073202;28;20197;-54
2022/03/18 02:38:07;;;;;;;24.33;13.90;;;;;;;;;;2072273;28;20192;-54
2022/03/18 02:39:07;;;;;;;23.60;13.57;;;;;;;;;;2075640;28;20193;-53
2022/03/18 02:40:07;;;;;;;16.30;11.97;;;;;;;;;;2076213;28;20199;-56
2022/03/18 02:41:08;;;;;;;17.50;12.40;;;;;;;;;;2074929;28;20188;-57
2022/03/18 02:42:09;;;;;;;16.97;11.87;;;;;;;;;;2066628;28;20181;-57
2022/03/18 02:43:09;;;;;;;15.97;13.10;;;;;;;;;;2071319;28;20276;-54
2022/03/18 02:44:09;;;;;;;19.83;13.00;;;;;;;;;;2074520;28;20231;-57
2022/03/18 02:45:10;;;;;;;21.10;14.30;;;;;;;;;;2075201;28;20204;-57
2022/03/18 02:46:10;;;;;;;16.30;13.13;;;;;;;;;;2074027;28;20677;-54
2022/03/18 02:47:11;;;;;;;20.03;13.23;;;;;;;;;;2072317;28;20188;-56
2022/03/18 02:48:11;;;;;;;19.20;13.33;;;;;;;;;;2075961;28;20189;-59
2022/03/18 02:49:11;;;;;;;20.10;13.57;;;;;;;;;;2075134;28;20235;-57
2022/03/18 02:50:11;;;;;;;22.17;14.23;;;;;;;;;;2075353;28;20211;-57
2022/03/18 02:51:13;;;;;;;17.27;12.50;;;;;;;;;;2075636;28;20177;-55
2022/03/18 02:52:14;;;;;;;18.10;12.90;;;;;;;;;;2074980;28;20228;-55
2022/03/18 02:53:15;;;;;;;19.03;13.10;;;;;;;;;;2076246;28;20423;-54
2022/03/18 02:54:15;;;;;;;16.73;12.83;;;;;;;;;;2075147;28;20418;-54
2022/03/18 02:55:16;;;;;;;21.57;13.23;;;;;;;;;;2076175;28;20203;-56
2022/03/18 02:56:16;;;;;;;17.97;13.80;;;;;;;;;;2076665;28;20224;-56
2022/03/18 02:57:16;;;;;;;19.83;13.83;;;;;;;;;;2074361;28;20208;-55
2022/03/18 02:58:16;;;;;;;19.40;13.47;;;;;;;;;;2071431;28;20174;-54
2022/03/18 02:59:17;;;;;;;18.87;12.97;;;;;;;;;;2066171;28;20302;-55
2022/03/18 03:00:17;;;;;;;17.40;12.67;;;;;;;;;;2067577;28;20248;-56
2022/03/18 03:01:17;;;;;;;17.37;13.07;;;;;;;;;;2073056;28;20168;-57
2022/03/18 03:02:17;;;;;;;14.97;12.57;;;;;;;;;;2068285;28;20652;-56
2022/03/18 03:03:18;;;;;;;17.83;12.40;;;;;;;;;;2075456;28;20204;-57
2022/03/18 03:04:18;;;;;;;21.97;13.97;;;;;;;;;;2071929;28;20435;-54
2022/03/18 03:07:59;;;;;;;15.40;12.83;;;;;;;;;;2070438;28;20468;-56
2022/03/18 03:08:59;;;;;;;16.90;12.13;;;;;;;;;;2072900;28;20454;-55
2022/03/18 03:10:01;;;;;;;21.70;13.57;;;;;;;;;;2070299;28;20414;-53
2022/03/18 03:11:02;;;;;;;21.47;13.33;;;;;;;;;;2071739;28;20185;-54
2022/03/18 03:12:02;;;;;;;20.70;13.73;;;;;;;;;;2070602;28;20992;-55
2022/03/18 03:13:06;;;;;;;18.57;13.47;;;;;;;;;;2075397;28;20195;-57
2022/03/18 03:14:06;;;;;;;20.33;13.97;;;;;;;;;;2074545;28;20633;-57
2022/03/18 03:15:07;;;;;;;21.73;14.47;;;;;;;;;;2074779;28;20426;-56
2022/03/18 03:16:08;;;;;;;21.73;15.10;;;;;;;;;;2075895;28;20629;-57
2022/03/18 03:17:08;;;;;;;21.17;14.63;;;;;;;;;;2076321;28;20169;-57
2022/03/18 03:18:08;;;;;;;22.03;15.23;;;;;;;;;;2075617;28;20240;-55
2022/03/18 03:19:09;;;;;;;22.67;14.10;;;;;;;;;;2074785;28;20188;-56
2022/03/18 03:20:10;;;;;;;19.93;14.53;;;;;;;;;;2075443;28;20204;-59
2022/03/18 03:21:10;;;;;;;15.67;13.57;;;;;;;;;;2073440;28;20180;-58
2022/03/18 03:22:10;;;;;;;18.23;13.53;;;;;;;;;;2075403;28;20173;-57
2022/03/18 03:23:10;;;;;;;24.87;14.07;;;;;;;;;;2075900;28;20200;-56
2022/03/18 03:24:11;;;;;;;18.03;12.97;;;;;;;;;;2070426;28;20183;-55
2022/03/18 03:25:11;;;;;;;18.90;13.83;;;;;;;;;;2064851;28;20174;-57
2022/03/18 03:26:12;;;;;;;17.87;14.13;;;;;;;;;;2076466;28;20169;-56
2022/03/18 03:27:12;;;;;;;15.10;13.37;;;;;;;;;;2075555;28;20290;-55
2022/03/18 03:28:12;;;;;;;19.50;15.23;;;;;;;;;;2075794;28;20188;-58
2022/03/18 03:29:12;;;;;;;21.97;14.53;;;;;;;;;;2076050;28;20735;-55
2022/03/18 03:30:13;;;;;;;19.27;13.90;;;;;;;;;;2076188;28;20285;-59
2022/03/18 03:31:13;;;;;;;18.33;13.27;;;;;;;;;;2076578;28;20662;-56
2022/03/18 03:32:13;;;;;;;19.53;15.00;;;;;;;;;;2077507;28;20209;-55
2022/03/18 03:33:14;;;;;;;19.30;14.60;;;;;;;;;;2076926;28;20235;-58
2022/03/18 03:34:14;;;;;;;16.97;13.83;;;;;;;;;;2061919;28;20178;-57
2022/03/18 03:35:15;;;;;;;14.70;13.13;;;;;;;;;;2072592;28;20200;-55
2022/03/18 03:36:15;;;;;;;18.40;13.90;;;;;;;;;;2075543;28;20199;-55
2022/03/18 03:37:15;;;;;;;18.20;13.60;;;;;;;;;;2076461;28;20660;-58
2022/03/18 03:38:16;;;;;;;19.53;14.30;;;;;;;;;;2076151;28;20177;-58
2022/03/18 03:39:16;;;;;;;14.67;12.73;;;;;;;;;;2075138;28;20207;-55
2022/03/18 03:40:18;;;;;;;20.07;13.67;;;;;;;;;;2074237;28;20181;-55
2022/03/18 03:41:21;;;;;;;17.50;13.47;;;;;;;;;;2072919;28;20179;-55
2022/03/18 03:42:21;;;;;;;24.37;13.97;;;;;;;;;;2070378;28;21170;-55
2022/03/18 03:43:22;;;;;;;17.97;13.27;;;;;;;;;;2072964;28;20414;-54
2022/03/18 03:44:22;;;;;;;14.27;12.77;;;;;;;;;;2075140;28;20191;-57
2022/03/18 03:45:22;;;;;;;21.17;13.33;;;;;;;;;;2074804;28;20201;-57
2022/03/18 03:46:23;;;;;;;18.37;13.20;;;;;;;;;;2075846;28;20185;-55
2022/03/18 03:47:23;;;;;;;18.30;13.17;;;;;;;;;;2076621;28;20274;-57
2022/03/18 03:48:23;;;;;;;17.53;14.10;;;;;;;;;;2076477;28;20165;-57
2022/03/18 03:49:23;;;;;;;17.67;12.23;;;;;;;;;;2074267;28;20243;-57
2022/03/18 03:50:24;;;;;;;21.33;12.80;;;;;;;;;;2076842;28;20240;-56
2022/03/18 03:51:24;;;;;;;15.93;13.27;;;;;;;;;;2076445;28;20664;-55
2022/03/18 03:52:24;;;;;;;16.40;12.47;;;;;;;;;;2076265;28;20161;-58
2022/03/18 03:53:24;;;;;;;15.47;12.63;;;;;;;;;;2074132;28;20267;-58
2022/03/18 03:54:27;;;;;;;17.50;12.60;;;;;;;;;;2075801;28;20681;-57
2022/03/18 03:55:27;;;;;;;15.97;11.93;;;;;;;;;;2077304;28;20166;-57
2022/03/18 03:56:28;;;;;;;16.63;12.03;;;;;;;;;;2078731;28;20414;-54
2022/03/18 03:57:28;;;;;;;19.77;12.00;;;;;;;;;;2078649;28;20220;-53
2022/03/18 03:58:28;;;;;;;18.93;11.47;;;;;;;;;;2079096;28;20207;-55
2022/03/18 03:59:28;;;;;;;15.17;12.07;;;;;;;;;;2078397;28;20231;-55
2022/03/18 04:00:28;;;;;;;18.93;12.40;;;;;;;;;;2078868;28;20689;-54
2022/03/18 04:01:29;;;;;;;19.33;12.57;;;;;;;;;;2076186;28;20287;-55
2022/03/18 04:02:29;;;;;;;15.37;12.50;;;;;;;;;;2075541;28;20169;-56
2022/03/18 04:03:29;;;;;;;14.83;12.10;;;;;;;;;;2076837;28;20661;-56
2022/03/18 04:04:29;;;;;;;17.60;13.30;;;;;;;;;;2078269;28;20260;-56
2022/03/18 04:05:31;;;;;;;19.27;12.30;;;;;;;;;;2070801;28;20550;-58
2022/03/18 04:06:31;;;;;;;16.00;13.13;;;;;;;;;;2068530;28;20208;-56
2022/03/18 04:07:32;;;;;;;15.90;12.30;;;;;;;;;;2076688;28;20457;-59
2022/03/18 04:08:32;;;;;;;24.17;14.20;;;;;;;;;;2078136;28;20554;-56
2022/03/18 04:09:32;;;;;;;22.90;14.27;;;;;;;;;;2076884;28;20323;-58
2022/03/18 04:10:33;;;;;;;21.90;15.23;;;;;;;;;;2078633;28;20177;-57
2022/03/18 04:11:33;;;;;;;21.20;13.73;;;;;;;;;;2077490;28;20208;-53
2022/03/18 04:12:33;;;;;;;21.17;15.10;;;;;;;;;;2079828;28;20233;-56
2022/03/18 04:13:33;;;;;;;18.23;14.73;;;;;;;;;;2078672;28;20193;-54
2022/03/18 04:14:34;;;;;;;24.13;15.60;;;;;;;;;;2078836;28;20181;-58
2022/03/18 04:15:34;;;;;;;19.27;14.33;;;;;;;;;;2077905;28;20193;-55
2022/03/18 04:16:35;;;;;;;16.57;14.87;;;;;;;;;;2079844;28;20220;-55
2022/03/18 04:17:45;;;;;;;21.73;16.07;;;;;;;;;;2074061;28;20180;-55
2022/03/18 04:18:46;;;;;;;21.13;15.10;;;;;;;;;;2079166;28;20414;-56
2022/03/18 04:19:46;;;;;;;22.83;14.83;;;;;;;;;;2072440;28;20423;-56
2022/03/18 04:20:46;;;;;;;21.77;15.23;;;;;;;;;;2073873;28;20196;-57
2022/03/18 04:21:47;;;;;;;23.53;15.40;;;;;;;;;;2070926;28;20193;-60
2022/03/18 04:22:47;;;;;;;21.90;15.13;;;;;;;;;;2071668;28;20583;-57
2022/03/18 04:23:48;;;;;;;19.17;14.83;;;;;;;;;;2077834;28;20220;-57
2022/03/18 04:24:48;;;;;;;22.30;14.73;;;;;;;;;;2070441;28;20174;-54
2022/03/18 04:25:51;;;;;;;18.97;14.70;;;;;;;;;;2071723;28;20201;-56
2022/03/18 04:26:51;;;;;;;18.60;14.10;;;;;;;;;;2075067;28;20192;-57
2022/03/18 04:27:51;;;;;;;20.67;14.40;;;;;;;;;;2070633;28;20792;-56
2022/03/18 04:28:51;;;;;;;24.37;15.20;;;;;;;;;;2075897;28;20207;-58
2022/03/18 04:29:52;;;;;;;22.23;15.37;;;;;;;;;;2076609;28;20380;-57
2022/03/18 04:30:53;;;;;;;18.13;14.60;;;;;;;;;;2075038;28;20185;-59
2022/03/18 04:31:53;;;;;;;22.90;15.60;;;;;;;;;;2074723;28;20268;-57
2022/03/18 04:32:53;;;;;;;19.47;14.53;;;;;;;;;;2065873;28;20225;-56
2022/03/18 04:33:54;;;;;;;21.50;15.13;;;;;;;;;;2065988;28;20289;-58
2022/03/18 04:34:54;;;;;;;19.77;13.83;;;;;;;;;;2074444;28;20173;-55
2022/03/18 04:35:54;;;;;;;20.17;15.23;;;;;;;;;;2074651;28;20181;-57
2022/03/18 04:36:54;;;;;;;25.37;15.73;;;;;;;;;;2074404;28;20216;-56
2022/03/18 04:37:55;;;;;;;19.93;15.23;;;;;;;;;;2073338;28;20188;-55
2022/03/18 04:38:55;;;;;;;24.00;15.90;;;;;;;;;;2074821;28;20196;-57
2022/03/18 04:39:56;;;;;;;20.63;14.63;;;;;;;;;;2074944;28;20223;-58
2022/03/18 04:40:56;;;;;;;19.73;14.50;;;;;;;;;;2074178;28;20177;-56
2022/03/18 04:41:56;;;;;;;18.37;14.33;;;;;;;;;;2068779;28;20169;-57
2022/03/18 04:42:57;;;;;;;18.53;14.20;;;;;;;;;;2068247;28;20173;-53
2022/03/18 04:43:57;;;;;;;21.33;14.27;;;;;;;;;;2065718;28;20173;-58
2022/03/18 04:44:57;;;;;;;15.50;13.67;;;;;;;;;;2069081;28;20196;-59
2022/03/18 04:45:57;;;;;;;15.63;13.97;;;;;;;;;;2074182;28;20204;-59
2022/03/18 04:46:58;;;;;;;16.60;13.63;;;;;;;;;;2074280;28;20197;-55
2022/03/18 04:47:58;;;;;;;22.63;13.40;;;;;;;;;;2075581;28;20180;-60
2022/03/18 04:48:59;;;;;;;16.67;12.90;;;;;;;;;;2070026;28;20189;-56
2022/03/18 04:50:00;;;;;;;16.13;13.70;;;;;;;;;;2079207;23;20323;-66
2022/03/18 04:51:00;;;;;;;20.60;14.63;;;;;;;;;;2072668;28;20254;-68
2022/03/18 04:52:00;;;;;;;18.47;14.53;;;;;;;;;;2072418;28;20414;-64
2022/03/18 04:53:01;;;;;;;19.70;15.57;;;;;;;;;;2065301;28;20201;-65
2022/03/18 04:54:01;;;;;;;24.43;15.40;;;;;;;;;;2063409;28;20181;-64
2022/03/18 04:55:02;;;;;;;19.17;16.17;;;;;;;;;;2067725;28;20352;-64
2022/03/18 04:56:03;;;;;;;23.67;16.67;;;;;;;;;;2066618;28;20218;-65
2022/03/18 04:57:15;;;;;;;22.73;16.70;;;;;;;;;;2064874;28;20482;-61
2022/03/18 04:58:15;;;;;;;22.90;15.93;;;;;;;;;;2071678;28;20164;-61
2022/03/18 04:59:15;;;;;;;23.17;15.27;;;;;;;;;;2064627;28;20735;-65
2022/03/18 05:00:17;;;;;;;21.83;15.57;;;;;;;;;;2065112;28;20548;-61
2022/03/18 05:01:20;;;;;;;19.20;14.53;;;;;;;;;;2073916;28;20245;-59
2022/03/18 05:02:20;;;;;;;18.70;16.20;;;;;;;;;;2074087;28;20416;-63
2022/03/18 05:03:21;;;;;;;22.13;16.97;;;;;;;;;;2074081;28;20414;-62
2022/03/18 05:04:21;;;;;;;18.13;15.00;;;;;;;;;;2074066;28;20193;-63
2022/03/18 05:05:21;;;;;;;19.37;15.73;;;;;;;;;;2074107;28;20173;-65
2022/03/18 05:06:21;;;;;;;21.93;15.93;;;;;;;;;;2074200;28;20170;-64
2022/03/18 05:07:22;;;;;;;21.30;15.97;;;;;;;;;;2073554;28;20700;-64
2022/03/18 05:08:22;;;;;;;17.77;15.17;;;;;;;;;;2071895;28;20188;-62
2022/03/18 05:09:25;;;;;;;18.17;14.83;;;;;;;;;;2072905;28;20176;-62
2022/03/18 05:10:25;;;;;;;21.87;14.70;;;;;;;;;;2066071;28;20506;-62
2022/03/18 05:11:26;;;;;;;21.70;14.77;;;;;;;;;;2066194;28;20205;-64
2022/03/18 05:12:27;;;;;;;15.00;13.33;;;;;;;;;;2074954;28;20173;-62
2022/03/18 05:13:29;;;;;;;23.63;14.27;;;;;;;;;;2073886;28;20254;-65
2022/03/18 05:14:29;;;;;;;17.60;12.47;;;;;;;;;;2064821;28;20856;-62
2022/03/18 05:15:31;;;;;;;19.90;13.83;;;;;;;;;;2065021;28;20525;-63
2022/03/18 05:16:31;;;;;;;22.50;13.20;;;;;;;;;;2073265;28;20658;-64
2022/03/18 05:17:32;;;;;;;16.37;12.53;;;;;;;;;;2073423;28;20413;-64
2022/03/18 05:18:32;;;;;;;17.53;13.77;;;;;;;;;;2074628;28;20172;-63
2022/03/18 05:19:32;;;;;;;17.77;13.37;;;;;;;;;;2074902;28;20325;-65
2022/03/18 05:20:34;;;;;;;17.87;12.87;;;;;;;;;;2074880;28;20232;-65
2022/03/18 05:21:36;;;;;;;19.53;13.43;;;;;;;;;;2074802;28;20177;-64
2022/03/18 05:22:36;;;;;;;24.80;13.63;;;;;;;;;;2075218;28;20845;-64
2022/03/18 05:23:37;;;;;;;20.17;13.60;;;;;;;;;;2065783;28;20240;-64
2022/03/18 05:24:37;;;;;;;18.33;13.63;;;;;;;;;;2066216;28;20593;-64
2022/03/18 05:25:40;;;;;;;20.37;13.40;;;;;;;;;;2074971;28;20275;-63
2022/03/18 05:26:41;;;;;;;15.37;12.53;;;;;;;;;;2075095;28;20216;-66
2022/03/18 05:27:42;;;;;;;20.67;14.07;;;;;;;;;;2074895;28;20487;-63
2022/03/18 05:28:43;;;;;;;18.90;12.97;;;;;;;;;;2066200;28;20650;-64
2022/03/18 05:29:44;;;;;;;16.27;12.20;;;;;;;;;;2057841;28;20440;-62
2022/03/18 05:30:44;;;;;;;19.97;12.67;;;;;;;;;;2066312;28;20220;-64
2022/03/18 05:31:46;;;;;;;14.67;12.47;;;;;;;;;;2074999;28;20181;-63
2022/03/18 05:32:46;;;;;;;19.20;13.53;;;;;;;;;;2074547;28;20256;-64
2022/03/18 05:33:46;;;;;;;14.47;12.87;;;;;;;;;;2074858;28;20422;-63
2022/03/18 05:34:46;;;;;;;16.83;12.53;;;;;;;;;;2074670;28;20251;-63
2022/03/18 05:35:46;;;;;;;16.97;12.77;;;;;;;;;;2074779;28;20184;-64
2022/03/18 05:36:47;;;;;;;20.80;12.07;;;;;;;;;;2074781;28;20685;-62
2022/03/18 05:37:47;;;;;;;19.83;12.67;;;;;;;;;;2072351;28;20271;-67
2022/03/18 05:38:48;;;;;;;19.83;12.77;;;;;;;;;;2070414;28;20185;-64
2022/03/18 05:39:50;;;;;;;20.23;13.17;;;;;;;;;;2075375;28;20181;-64
2022/03/18 05:40:50;;;;;;;20.53;12.23;;;;;;;;;;2074830;28;20238;-64
2022/03/18 05:41:50;;;;;;;16.30;12.90;;;;;;;;;;2074778;28;21199;-64
2022/03/18 05:42:51;;;;;;;21.20;13.50;;;;;;;;;;2073544;28;20376;-65
2022/03/18 05:43:51;;;;;;;17.60;12.23;;;;;;;;;;2069014;28;20554;-64
2022/03/18 05:44:52;;;;;;;16.00;11.93;;;;;;;;;;2074526;28;20272;-65
2022/03/18 05:45:52;;;;;;;17.53;11.17;;;;;;;;;;2075442;28;20664;-64
2022/03/18 05:46:52;;;;;;;15.77;11.33;;;;;;;;;;2058161;28;20182;-64
2022/03/18 05:47:53;;;;;;;15.20;11.70;;;;;;;;;;2057769;28;20753;-62
2022/03/18 05:48:53;;;;;;;18.13;11.80;;;;;;;;;;2066826;28;20255;-63
2022/03/18 05:49:56;;;;;;;15.27;10.97;;;;;;;;;;2072115;28;20239;-62
2022/03/18 05:50:56;;;;;;;14.03;11.60;;;;;;;;;;2074960;28;20410;-65
2022/03/18 05:51:57;;;;;;;16.83;12.20;;;;;;;;;;2066332;28;20462;-63
2022/03/18 05:52:57;;;;;;;16.63;11.83;;;;;;;;;;2066431;28;20550;-64
2022/03/18 05:53:58;;;;;;;15.27;12.03;;;;;;;;;;2065762;28;20172;-63
2022/03/18 05:54:58;;;;;;;17.97;12.47;;;;;;;;;;2065232;28;20166;-64
2022/03/18 05:57:17;;;;;;;21.00;13.67;;;;;;;;;;2067884;28;20610;-63
2022/03/18 05:58:18;;;;;;;19.97;12.47;;;;;;;;;;2072680;28;20430;-63
2022/03/18 05:59:19;;;;;;;18.27;12.67;;;;;;;;;;2073896;28;20184;-64
2022/03/18 06:00:20;;;;;;;16.77;11.93;;;;;;;;;;2063218;28;20261;-65
2022/03/18 06:01:20;;;;;;;15.67;12.30;;;;;;;;;;2071128;28;20291;-65
2022/03/18 06:02:21;;;;;;;16.77;12.70;;;;;;;;;;2071546;28;20195;-64
2022/03/18 06:03:21;;;;;;;16.03;12.77;;;;;;;;;;2071430;28;20191;-64